Aérodrome :
LOGIN :

S'inscrire | Disclaimer

   EN    FR    IT 

 










Légende :    VFR   VFR Marginal   IFR   IFR Intensif   IFR Très Intensif
Visi : 
Plafond : 
>= 8 km
>= 3000ft
5 à 8 km
1000 à 3000 ft
1500m à 5 km
500 à 1000 ft
800 à 1500m
200 à 500 ft
< 800m
< 200 ft
Symboles :   Orages  Brouillard  Fortes neiges  Fortes précipitations  Vent > 20 kt
SIGMETs :   Divers  Orages  Givrage  Turbulence  Onde Orograph.  Cendres Volcan.






- Altitude de l'aérodrome : 33 ft
- Code IATA : MHZ


EGUN - RAF Mildenhall

DERNIER METAR :
  • 281155Z 25013G21KT 9999 FEW190 13/06 A2954 RMK AO2A SLP003 WND DATA ESTMD RVRNO $

METARs EXPIRÉS :
  • 281055Z 26012G20KT 9999 FEW130 12/06 A2955 RMK AO2A SLP005 WND DATA ESTMD RVRNO $
  • 280955Z 26013G21KT 9999 FEW080 11/06 A2955 RMK AO2A PK WND 24026/43 SLP006 WND DATA ESTMD RVRNO $

TAF TAF EGUN
Valide du 28 à 04h jusqu'au 29 à 10h UTC


280400Z 2804/2910 23010G20KT 9999 SCT030 QNH2947INS
BECMG 2811/2812 23015G25KT 9000 -RA BKN025 QNH2953INS
BECMG 2817/2818 24010G20KT 9999 NSW BKN030 QNH2955INS
BECMG 2822/2823 24010G15KT 9999 SCT030 QNH2984INS
BECMG 2908/2909 21010G15KT 9000 -RA BKN025 620508 QNH2990INS TX13/2813Z TN06/2807Z



MET'MAP, la Météo Aéronautique d'un coup d'oeil ! - Copyright ORBIFLY Décembre 2007 - Disclaimer

ORBIFLY MET'MAP TEAM :

Programmation & Développement : Alexandra Zaïnal
Sur une idée originale de : Baudouin d'Aumeries
Assistance à la programmation : Marc-Olivier Méhu
Soutien technique & logistique : Manuel Goepfert

Contact : metmap@orbifly.com




SOURCES & CREDITS :

   NOAA